Time;durP1;ratioP1;P1;durP2;ratioP2;P2;SDS_P1;SDS_P2;PMS_P1;PMS_P2;Temp;Humidity;BMP_temperature;BMP_pressure;BME280_temperature;BME280_humidity;BME280_pressure;Samples;Min_cycle;Max_cycle;Signal;HPM_P1;HPM_P2
2021/10/31 00:03:18;;;;;;;9.00;4.83;;;;;;;6.56;100.00;99142.16;4376462;80;28444;-84
2021/10/31 00:09:20;;;;;;;10.88;5.78;;;;;;;6.64;100.00;99149.98;4378439;80;28481;-84
2021/10/31 00:15:21;;;;;;;10.90;5.35;;;;;;;6.50;100.00;99138.45;4348508;80;28490;-84
2021/10/31 00:21:25;;;;;;;19.00;9.58;;;;;;;6.22;100.00;99137.23;4381083;80;28432;-84
2021/10/31 00:27:26;;;;;;;11.97;6.92;;;;;;;6.32;100.00;99151.03;4304698;81;28530;-84
2021/10/31 00:33:28;;;;;;;11.65;5.70;;;;;;;6.13;100.00;99157.43;4286810;81;28507;-84
2021/10/31 00:39:29;;;;;;;14.53;7.12;;;;;;;5.95;100.00;99165.95;4299936;81;28491;-85
2021/10/31 00:45:31;;;;;;;10.93;5.53;;;;;;;6.22;100.00;99161.27;4294153;81;28468;-85
2021/10/31 00:51:32;;;;;;;13.75;6.12;;;;;;;5.93;100.00;99156.48;4301716;81;28506;-86
2021/10/31 00:57:36;;;;;;;14.73;6.95;;;;;;;5.76;100.00;99158.66;4293651;80;28526;-85
2021/10/31 01:03:38;;;;;;;12.05;6.50;;;;;;;5.73;100.00;99149.20;4330362;80;28546;-86
2021/10/31 01:10:11;;;;;;;14.20;7.35;;;;;;;5.41;100.00;99148.27;4323910;80;28499;-86
2021/10/31 01:16:30;;;;;;;12.07;6.53;;;;;;;5.51;100.00;99145.77;4315666;80;28464;-85
2021/10/31 01:22:59;;;;;;;13.22;6.85;;;;;;;5.22;100.00;99147.64;4348560;82;28451;-86
2021/10/31 01:29:26;;;;;;;10.48;5.75;;;;;;;5.05;100.00;99151.91;4336892;82;28483;-86
2021/10/31 01:36:14;;;;;;;10.93;6.15;;;;;;;4.89;100.00;99160.98;4354865;82;28439;-86
2021/10/31 01:42:41;;;;;;;12.40;6.42;;;;;;;4.86;100.00;99151.53;4354823;82;28473;-84
2021/10/31 01:49:03;;;;;;;12.40;6.83;;;;;;;4.94;100.00;99155.89;4335898;82;28498;-85
2021/10/31 01:55:13;;;;;;;19.57;8.13;;;;;;;4.93;100.00;99153.44;4354786;82;28462;-85
2021/10/31 02:01:16;;;;;;;16.02;7.65;;;;;;;4.97;100.00;99171.52;4382604;81;28482;-87
2021/10/31 02:07:20;;;;;;;20.82;10.10;;;;;;;5.18;100.00;99158.35;4335385;81;28472;-86
2021/10/31 02:13:25;;;;;;;15.65;7.70;;;;;;;5.24;100.00;99162.41;4380634;81;28461;-86
2021/10/31 02:19:32;;;;;;;15.83;8.20;;;;;;;5.05;100.00;99173.72;4383841;81;28469;-85
2021/10/31 02:25:35;;;;;;;14.68;7.40;;;;;;;4.93;100.00;99174.23;4364353;80;28484;-85
2021/10/31 02:31:37;;;;;;;15.20;7.92;;;;;;;4.84;100.00;99156.72;4383679;81;28470;-83
2021/10/31 02:37:41;;;;;;;18.45;9.50;;;;;;;4.76;100.00;99158.20;4383658;81;28446;-85
2021/10/31 02:43:43;;;;;;;14.58;8.88;;;;;;;4.89;100.00;99167.65;4383686;81;28488;-85
2021/10/31 02:49:44;;;;;;;16.42;9.13;;;;;;;4.67;100.00;99177.46;4384259;81;28448;-85
2021/10/31 02:55:53;;;;;;;15.83;8.53;;;;;;;4.70;100.00;99163.79;4383600;81;28496;-81
2021/10/31 03:01:58;;;;;;;16.90;7.80;;;;;;;4.51;100.00;99179.86;4363390;81;28539;-86
2021/10/31 03:08:00;;;;;;;16.65;8.30;;;;;;;4.38;100.00;99182.69;4361722;81;28512;-83
2021/10/31 03:14:01;;;;;;;16.48;7.87;;;;;;;4.36;100.00;99177.23;4390002;80;28530;-83
2021/10/31 03:20:04;;;;;;;17.23;8.18;;;;;;;4.37;100.00;99186.86;4346604;80;28512;-83
2021/10/31 03:26:06;;;;;;;17.75;8.63;;;;;;;4.43;100.00;99187.45;4384791;80;28525;-83
2021/10/31 03:32:08;;;;;;;19.25;8.95;;;;;;;4.25;100.00;99191.86;4371024;80;28524;-83
2021/10/31 03:38:09;;;;;;;16.52;8.38;;;;;;;4.37;100.00;99194.36;4382399;81;28517;-83
2021/10/31 03:44:14;;;;;;;13.40;7.47;;;;;;;4.07;100.00;99209.03;4383159;81;28464;-84
2021/10/31 03:50:17;;;;;;;16.10;7.75;;;;;;;4.12;100.00;99212.47;4383745;81;28484;-83
2021/10/31 03:56:18;;;;;;;16.07;7.40;;;;;;;4.09;100.00;99207.00;4382404;80;28508;-84
2021/10/31 04:02:19;;;;;;;16.37;8.20;;;;;;;4.07;100.00;99203.70;4357831;82;28535;-84
2021/10/31 04:08:21;;;;;;;15.38;7.70;;;;;;;4.11;100.00;99201.50;4365996;80;28456;-85
2021/10/31 04:14:22;;;;;;;14.85;7.70;;;;;;;3.72;100.00;99194.94;4380142;80;28513;-85
2021/10/31 04:20:24;;;;;;;16.42;8.58;;;;;;;3.57;100.00;99204.23;4361349;82;28525;-85
2021/10/31 04:26:25;;;;;;;13.25;7.20;;;;;;;3.48;100.00;99189.36;4363804;82;28524;-85
2021/10/31 04:32:26;;;;;;;12.58;6.78;;;;;;;3.46;100.00;99192.71;4315953;82;28485;-84
2021/10/31 04:38:30;;;;;;;11.75;6.28;;;;;;;3.60;100.00;99190.59;4317600;81;28492;-83
2021/10/31 04:44:33;;;;;;;13.78;7.35;;;;;;;3.55;100.00;99189.48;4438870;80;28458;-84
2021/10/31 04:50:35;;;;;;;13.45;7.25;;;;;;;3.30;100.00;99183.90;4393679;81;28509;-84
2021/10/31 04:56:36;;;;;;;14.35;7.08;;;;;;;3.48;100.00;99176.06;4392931;80;28457;-84
2021/10/31 05:02:38;;;;;;;15.40;7.87;;;;;;;3.24;100.00;99177.95;4385021;81;28508;-83
2021/10/31 05:08:40;;;;;;;14.18;6.75;;;;;;;3.24;100.00;99175.30;4385504;81;28492;-83
2021/10/31 05:14:42;;;;;;;13.62;6.80;;;;;;;2.91;100.00;99179.56;4381854;80;28545;-83
2021/10/31 05:20:43;;;;;;;16.80;8.50;;;;;;;3.05;100.00;99183.28;4349662;80;28464;-84
2021/10/31 05:26:45;;;;;;;23.15;10.90;;;;;;;2.92;100.00;99193.16;4390840;80;28588;-85
2021/10/31 05:32:47;;;;;;;19.77;10.53;;;;;;;3.29;100.00;99197.35;4385076;81;28540;-84
2021/10/31 05:38:48;;;;;;;23.15;10.95;;;;;;;3.43;100.00;99205.04;4382873;81;28458;-85
2021/10/31 05:44:51;;;;;;;14.00;7.35;;;;;;;3.39;100.00;99203.77;4368699;81;28563;-85
2021/10/31 05:50:55;;;;;;;18.00;8.68;;;;;;;3.25;100.00;99223.45;4365479;80;28507;-83
2021/10/31 05:56:56;;;;;;;15.85;8.38;;;;;;;3.46;100.00;99222.79;4356895;80;28477;-83
2021/10/31 06:02:58;;;;;;;17.70;9.40;;;;;;;3.39;100.00;99232.48;4372388;80;28540;-83
2021/10/31 06:09:00;;;;;;;21.80;9.75;;;;;;;3.70;100.00;99242.17;4386933;80;28537;-85
2021/10/31 06:15:03;;;;;;;18.48;9.95;;;;;;;3.59;100.00;99237.30;4354728;80;28499;-85
2021/10/31 06:21:05;;;;;;;15.32;8.73;;;;;;;3.62;100.00;99239.09;4354192;80;28473;-84
2021/10/31 06:27:07;;;;;;;17.27;9.18;;;;;;;3.58;100.00;99234.31;4346489;80;28499;-86
2021/10/31 06:33:08;;;;;;;19.90;9.20;;;;;;;3.73;100.00;99244.45;4339155;80;28564;-82
2021/10/31 06:39:10;;;;;;;16.65;8.53;;;;;;;3.90;100.00;99242.97;4368300;80;28504;-82
2021/10/31 06:45:14;;;;;;;19.62;8.38;;;;;;;4.25;100.00;99255.21;4353760;80;28468;-81
2021/10/31 06:51:15;;;;;;;18.75;8.83;;;;;;;4.42;100.00;99257.69;4344967;80;28490;-81
2021/10/31 06:57:17;;;;;;;17.07;8.88;;;;;;;4.61;100.00;99241.63;4347909;80;28512;-83
2021/10/31 07:03:19;;;;;;;16.35;9.10;;;;;;;4.82;100.00;99247.52;4369995;80;28587;-87
2021/10/31 07:09:20;;;;;;;17.32;9.10;;;;;;;5.20;100.00;99249.61;4362883;80;28472;-84
2021/10/31 07:15:22;;;;;;;18.02;9.35;;;;;;;5.65;100.00;99252.89;4405250;79;28487;-87
2021/10/31 07:21:23;;;;;;;19.62;10.15;;;;;;;5.98;100.00;99252.28;4403197;79;28500;-84
2021/10/31 07:27:24;;;;;;;21.80;10.98;;;;;;;6.26;100.00;99258.13;4388958;79;28472;-80
2021/10/31 07:33:26;;;;;;;21.97;11.35;;;;;;;6.48;100.00;99258.53;4326117;80;28421;-84
2021/10/31 07:39:29;;;;;;;20.97;10.90;;;;;;;6.70;100.00;99252.03;4355131;80;28466;-84
2021/10/31 07:45:31;;;;;;;20.08;10.72;;;;;;;6.85;100.00;99251.06;4357470;80;28497;-82
2021/10/31 07:51:33;;;;;;;19.05;9.98;;;;;;;7.14;100.00;99254.92;4362599;80;28551;-81
2021/10/31 07:57:34;;;;;;;20.55;9.65;;;;;;;7.36;100.00;99244.88;4361443;80;28555;-83
2021/10/31 08:03:36;;;;;;;19.35;10.40;;;;;;;7.68;100.00;99247.23;4372150;80;28551;-84
2021/10/31 08:09:37;;;;;;;19.05;10.40;;;;;;;7.94;100.00;99247.41;4388551;80;28446;-83
2021/10/31 08:15:38;;;;;;;21.73;11.28;;;;;;;8.15;100.00;99241.50;4386558;79;28564;-83
2021/10/31 08:21:40;;;;;;;18.12;9.73;;;;;;;8.42;100.00;99242.23;4377956;79;28507;-84
2021/10/31 08:27:41;;;;;;;19.07;10.70;;;;;;;8.77;100.00;99250.47;4372905;79;28547;-82
2021/10/31 08:33:44;;;;;;;21.10;11.10;;;;;;;9.01;100.00;99249.43;4372309;79;28525;-84
2021/10/31 08:39:46;;;;;;;21.00;10.85;;;;;;;9.17;100.00;99246.75;4369228;79;28494;-83
2021/10/31 08:45:48;;;;;;;17.48;9.60;;;;;;;9.30;100.00;99251.18;4371752;79;28445;-83
2021/10/31 08:51:49;;;;;;;14.98;9.08;;;;;;;9.51;100.00;99243.29;4377984;79;28497;-83
2021/10/31 08:57:51;;;;;;;16.55;9.33;;;;;;;9.66;100.00;99244.81;4375234;79;28619;-83
2021/10/31 09:03:53;;;;;;;19.45;9.70;;;;;;;9.94;100.00;99228.22;4390930;79;28462;-83
2021/10/31 09:09:55;;;;;;;16.82;9.25;;;;;;;10.08;100.00;99221.39;4382135;79;28566;-82
2021/10/31 09:15:56;;;;;;;15.93;9.10;;;;;;;10.21;100.00;99210.48;4370782;79;28495;-84
2021/10/31 09:21:57;;;;;;;18.00;10.00;;;;;;;10.33;100.00;99214.06;4371565;79;28480;-83
2021/10/31 09:28:01;;;;;;;17.62;9.80;;;;;;;10.63;100.00;99196.88;4367471;79;28471;-82
2021/10/31 09:34:03;;;;;;;15.95;9.25;;;;;;;10.85;100.00;99198.55;4375887;80;28486;-82
2021/10/31 09:40:06;;;;;;;15.28;9.05;;;;;;;10.97;100.00;99197.22;4384203;80;28461;-87
2021/10/31 09:46:07;;;;;;;15.28;8.10;;;;;;;11.27;93.41;99192.31;4378723;79;28574;-83
2021/10/31 09:52:09;;;;;;;15.88;8.40;;;;;;;11.49;91.47;99191.75;4370875;79;28511;-82
2021/10/31 09:58:23;;;;;;;16.97;9.50;;;;;;;11.92;86.15;99178.98;4382928;79;28488;-83
2021/10/31 10:04:31;;;;;;;15.30;8.40;;;;;;;12.09;84.75;99163.76;4376184;80;28530;-81
2021/10/31 10:10:46;;;;;;;11.55;6.87;;;;;;;12.15;87.04;99164.68;4425130;79;28516;-85
2021/10/31 10:16:48;;;;;;;11.43;6.63;;;;;;;12.26;80.62;99157.60;4413771;79;28554;-83
2021/10/31 10:22:49;;;;;;;10.32;5.95;;;;;;;12.67;78.38;99156.23;4419732;79;32104;-85
2021/10/31 10:28:52;;;;;;;6.78;3.80;;;;;;;12.69;77.39;99152.75;4409131;79;28454;-84
2021/10/31 10:34:57;;;;;;;6.17;3.45;;;;;;;12.82;56.08;99144.89;4401400;79;28532;-80
2021/10/31 10:40:59;;;;;;;6.75;3.60;;;;;;;12.89;57.96;99133.39;4378324;80;28485;-79
2021/10/31 10:47:08;;;;;;;7.17;4.12;;;;;;;13.05;61.12;99128.27;4351791;80;28508;-83
2021/10/31 10:53:18;;;;;;;8.38;4.35;;;;;;;13.28;56.50;99124.58;4363566;80;28451;-81
2021/10/31 10:59:22;;;;;;;7.42;4.83;;;;;;;13.37;61.94;99109.57;4363875;81;28559;-81
2021/10/31 11:05:37;;;;;;;6.97;4.62;;;;;;;13.63;60.78;99099.17;4369964;81;28512;-84
2021/10/31 11:11:39;;;;;;;8.63;5.10;;;;;;;13.82;60.59;99084.02;4454820;79;28446;-81
2021/10/31 11:17:43;;;;;;;7.65;4.72;;;;;;;13.80;63.93;99079.40;4435985;80;28446;-86
2021/10/31 11:23:46;;;;;;;7.53;4.58;;;;;;;14.01;59.91;99077.73;4430631;80;28440;-84
2021/10/31 11:29:53;;;;;;;8.35;4.50;;;;;;;14.13;57.32;99072.20;4408539;80;28539;-82
2021/10/31 11:35:55;;;;;;;7.70;4.60;;;;;;;14.33;57.80;99058.06;4433773;80;28473;-81
2021/10/31 11:41:59;;;;;;;10.15;5.22;;;;;;;14.50;57.29;99051.19;4478076;78;28449;-85
2021/10/31 11:48:25;;;;;;;7.97;5.10;;;;;;;14.39;60.02;99048.11;4346585;81;28531;-85
2021/10/31 11:54:27;;;;;;;10.60;4.50;;;;;;;14.52;60.80;99040.12;4340604;80;28560;-83
2021/10/31 12:00:29;;;;;;;10.13;5.30;;;;;;;14.68;59.79;99032.12;4426855;79;28530;-83
2021/10/31 12:06:41;;;;;;;8.43;4.35;;;;;;;14.71;61.31;99024.86;4326452;80;28460;-83
2021/10/31 12:13:04;;;;;;;8.05;4.22;;;;;;;14.87;57.06;99028.52;4343072;80;28444;-84
2021/10/31 12:19:10;;;;;;;7.25;4.40;;;;;;;14.94;56.70;99011.50;4349120;81;28485;-85
2021/10/31 12:25:11;;;;;;;8.15;4.30;;;;;;;15.07;55.64;99002.66;4331900;80;28485;-85
2021/10/31 12:31:30;;;;;;;6.10;4.08;;;;;;;15.18;54.81;99000.29;4413155;79;28509;-85
2021/10/31 12:37:33;;;;;;;9.80;5.10;;;;;;;15.22;53.75;98995.17;4313949;80;28486;-83
2021/10/31 12:43:45;;;;;;;8.03;5.08;;;;;;;15.24;54.82;98987.03;4328597;80;28480;-83
2021/10/31 12:49:47;;;;;;;8.50;4.83;;;;;;;15.14;54.92;98984.27;4396376;79;28515;-83
2021/10/31 12:55:49;;;;;;;9.08;4.72;;;;;;;15.12;55.00;98964.25;4381488;79;28431;-82
2021/10/31 13:02:08;;;;;;;7.20;4.17;;;;;;;15.11;53.67;98961.79;4442638;79;28497;-83
2021/10/31 13:08:17;;;;;;;6.35;3.85;;;;;;;15.02;54.45;98948.75;4377264;79;28556;-84
2021/10/31 13:14:35;;;;;;;9.13;4.53;;;;;;;15.10;51.44;98947.45;4364214;81;28442;-84
2021/10/31 13:20:37;;;;;;;7.45;5.10;;;;;;;15.22;51.47;98948.58;4380268;79;28469;-84
2021/10/31 13:26:38;;;;;;;8.68;4.72;;;;;;;15.16;52.92;98938.81;4372640;79;28483;-86
2021/10/31 13:32:40;;;;;;;7.35;5.08;;;;;;;15.15;53.85;98933.09;4370015;81;28497;-84
2021/10/31 13:39:00;;;;;;;8.08;4.97;;;;;;;15.11;54.69;98938.25;4368685;79;28456;-80
2021/10/31 13:45:10;;;;;;;8.38;5.28;;;;;;;14.97;56.32;98935.72;4394602;79;28572;-81
2021/10/31 13:51:12;;;;;;;8.70;5.33;;;;;;;14.95;56.97;98932.47;4384058;79;28462;-83
2021/10/31 13:57:24;;;;;;;7.12;4.97;;;;;;;14.86;57.59;98931.61;4366945;79;28571;-80
2021/10/31 14:03:28;;;;;;;8.18;5.50;;;;;;;14.77;59.00;98925.05;4385051;79;28468;-81
2021/10/31 14:09:29;;;;;;;9.65;5.62;;;;;;;14.69;59.62;98916.07;4367336;79;28461;-82
2021/10/31 14:15:31;;;;;;;8.40;5.12;;;;;;;14.57;60.44;98920.31;4357519;80;28457;-84
2021/10/31 14:21:32;;;;;;;8.93;5.33;;;;;;;14.44;60.13;98914.28;4376921;79;28552;-85
2021/10/31 14:27:39;;;;;;;7.58;5.08;;;;;;;14.31;60.61;98902.02;4384377;79;28487;-84
2021/10/31 14:33:43;;;;;;;8.98;5.10;;;;;;;14.26;61.37;98907.37;4372593;79;28507;-85
2021/10/31 14:39:44;;;;;;;10.50;4.95;;;;;;;14.10;62.13;98899.67;4373786;79;28545;-84
2021/10/31 14:45:52;;;;;;;8.18;5.10;;;;;;;13.98;63.25;98905.79;4390585;79;28615;-84
2021/10/31 14:52:05;;;;;;;8.68;5.28;;;;;;;13.80;64.62;98899.16;4369868;79;28479;-84
2021/10/31 14:58:07;;;;;;;8.23;4.90;;;;;;;13.71;64.74;98891.78;4379014;80;28632;-80
2021/10/31 15:04:30;;;;;;;9.55;5.30;;;;;;;13.56;65.66;98891.09;4354739;79;28492;-81
2021/10/31 15:10:31;;;;;;;8.60;5.20;;;;;;;13.35;67.65;98887.59;4227614;81;28548;-81
2021/10/31 15:16:34;;;;;;;8.63;5.22;;;;;;;13.17;68.17;98879.30;4309881;81;28509;-81
2021/10/31 15:22:36;;;;;;;8.58;5.15;;;;;;;12.97;70.38;98880.67;4197236;83;28527;-80
2021/10/31 15:28:37;;;;;;;9.20;5.37;;;;;;;12.78;71.23;98871.25;4301862;81;28564;-79
2021/10/31 15:34:39;;;;;;;8.88;5.30;;;;;;;12.46;75.12;98857.06;4316973;81;28500;-82
2021/10/31 15:40:40;;;;;;;9.50;5.45;;;;;;;12.30;75.43;98863.59;4326786;81;28513;-79
2021/10/31 15:46:44;;;;;;;10.13;5.67;;;;;;;12.16;76.57;98858.23;4307171;81;28570;-77
2021/10/31 15:52:46;;;;;;;9.00;5.55;;;;;;;11.98;78.46;98862.26;4312766;81;28575;-79
2021/10/31 15:58:48;;;;;;;11.22;5.65;;;;;;;11.81;79.60;98860.91;4317572;81;28535;-81
2021/10/31 16:04:49;;;;;;;11.60;6.03;;;;;;;11.53;83.63;98851.00;4299115;81;28558;-78
2021/10/31 16:10:51;;;;;;;11.43;6.45;;;;;;;11.31;87.10;98844.95;4314474;81;28534;-80
2021/10/31 16:16:53;;;;;;;12.15;6.40;;;;;;;11.01;90.51;98837.38;4296637;81;28927;-82
2021/10/31 16:22:55;;;;;;;11.57;6.30;;;;;;;10.87;89.58;98840.87;4310461;81;28469;-82
2021/10/31 16:28:57;;;;;;;10.28;6.53;;;;;;;10.55;95.66;98837.80;4306750;81;28451;-83
2021/10/31 16:35:00;;;;;;;10.72;6.30;;;;;;;10.31;97.42;98835.10;4308111;81;28457;-77
2021/10/31 16:41:05;;;;;;;10.23;5.83;;;;;;;10.14;99.73;98829.08;4302586;81;28521;-78
2021/10/31 16:47:09;;;;;;;12.23;6.72;;;;;;;9.88;100.00;98826.31;4307998;81;28563;-78
2021/10/31 16:53:11;;;;;;;11.08;6.75;;;;;;;9.68;100.00;98827.45;4289034;81;28463;-80
2021/10/31 16:59:12;;;;;;;12.10;6.55;;;;;;;9.53;100.00;98825.19;4323527;81;28552;-78
2021/10/31 17:05:15;;;;;;;14.43;6.47;;;;;;;9.54;100.00;98828.17;4292136;81;28452;-85
2021/10/31 17:11:17;;;;;;;10.88;5.78;;;;;;;9.45;100.00;98816.12;4257832;82;28477;-83
2021/10/31 17:17:19;;;;;;;12.37;6.70;;;;;;;9.18;100.00;98812.49;4251484;82;28486;-84
2021/10/31 17:23:21;;;;;;;11.95;6.75;;;;;;;9.11;100.00;98817.13;4239973;82;28539;-86
2021/10/31 17:29:22;;;;;;;12.90;6.53;;;;;;;8.92;100.00;98819.83;4191805;85;28463;-82
2021/10/31 17:35:24;;;;;;;10.68;7.00;;;;;;;8.81;100.00;98821.92;4240330;84;28521;-83
2021/10/31 17:41:27;;;;;;;11.90;6.55;;;;;;;8.58;100.00;98815.39;4245436;83;28478;-80
2021/10/31 17:47:30;;;;;;;12.73;7.30;;;;;;;8.30;100.00;98824.71;4180490;84;28491;-83
2021/10/31 17:53:31;;;;;;;13.28;7.62;;;;;;;8.09;100.00;98821.41;4213735;82;28522;-79
2021/10/31 17:59:33;;;;;;;12.13;6.00;;;;;;;7.87;100.00;98815.64;4232421;84;28469;-81
2021/10/31 18:05:40;;;;;;;11.95;6.12;;;;;;;7.68;100.00;98806.21;4230453;83;28461;-79
2021/10/31 18:11:41;;;;;;;;;;;;;;;7.58;100.00;98809.36;4281710;82;28478;-84
2021/10/31 18:17:43;;;;;;;13.38;7.42;;;;;;;7.62;100.00;98811.08;4264101;83;20306;-80
2021/10/31 18:23:44;;;;;;;13.62;7.78;;;;;;;7.29;100.00;98799.59;4261337;81;28491;-78
2021/10/31 18:29:46;;;;;;;13.35;7.37;;;;;;;7.10;100.00;98802.16;4263224;83;28474;-76
2021/10/31 18:35:48;;;;;;;11.95;7.35;;;;;;;7.01;100.00;98799.44;4276877;81;28455;-81
2021/10/31 18:41:50;;;;;;;10.85;6.28;;;;;;;6.81;100.00;98804.86;4291998;83;28459;-86
2021/10/31 18:47:52;;;;;;;13.93;6.37;;;;;;;6.51;100.00;98808.88;4211164;83;28508;-85
2021/10/31 18:53:53;;;;;;;18.48;8.70;;;;;;;6.54;100.00;98806.31;4267472;81;28476;-87
2021/10/31 18:59:55;;;;;;;15.85;8.80;;;;;;;6.53;100.00;98800.12;4183712;83;28484;-87
2021/10/31 19:05:56;;;;;;;18.55;8.73;;;;;;;6.48;100.00;98785.77;4288496;81;28581;-85
2021/10/31 19:11:58;;;;;;;14.40;8.50;;;;;;;6.27;100.00;98793.02;4201764;82;28454;-85
2021/10/31 19:18:01;;;;;;;14.78;7.75;;;;;;;6.20;100.00;98784.22;4220613;82;28562;-85
2021/10/31 19:24:03;;;;;;;14.10;7.25;;;;;;;6.17;100.00;98780.11;4243261;82;28504;-83
2021/10/31 19:30:07;;;;;;;15.88;7.78;;;;;;;5.94;100.00;98784.52;4232682;82;28647;-84
2021/10/31 19:36:12;;;;;;;14.93;7.53;;;;;;;5.76;100.00;98784.62;4242512;82;28541;-81
2021/10/31 19:42:14;;;;;;;17.73;9.88;;;;;;;5.68;100.00;98770.19;4236688;82;28499;-81
2021/10/31 19:48:16;;;;;;;18.17;9.25;;;;;;;5.48;100.00;98760.34;4234683;82;28481;-87
2021/10/31 19:54:23;;;;;;;15.15;7.83;;;;;;;5.34;100.00;98752.00;4233312;82;28451;-84
2021/10/31 20:00:23;;;;;;;13.38;7.60;;;;;;;5.23;100.00;98744.92;4209531;82;28637;-79
2021/10/31 20:06:25;;;;;;;23.32;13.05;;;;;;;4.97;100.00;98755.86;4245592;82;28534;-82
2021/10/31 20:12:27;;;;;;;21.20;11.70;;;;;;;5.02;100.00;98748.06;4184710;83;28546;-84
2021/10/31 20:18:29;;;;;;;19.27;11.70;;;;;;;4.96;100.00;98744.89;4249963;82;28488;-81
2021/10/31 20:24:30;;;;;;;22.37;11.85;;;;;;;5.04;100.00;98743.87;4284028;82;28485;-80
2021/10/31 20:30:33;;;;;;;21.07;10.70;;;;;;;4.89;100.00;98733.39;4186567;83;28521;-79
2021/10/31 20:36:36;;;;;;;21.50;12.00;;;;;;;4.77;100.00;98723.82;4174169;84;28543;-78
2021/10/31 20:42:40;;;;;;;26.80;12.65;;;;;;;4.65;100.00;98726.27;4265452;82;28577;-79
2021/10/31 20:48:41;;;;;;;24.35;13.35;;;;;;;4.66;100.00;98721.75;4173800;84;28515;-79
2021/10/31 20:54:45;;;;;;;27.20;13.43;;;;;;;4.54;100.00;98724.98;4286185;81;28472;-78
2021/10/31 21:00:52;;;;;;;25.30;12.00;;;;;;;4.43;100.00;98713.58;4189551;83;28454;-80
2021/10/31 21:06:49;;;;;;;21.00;11.63;;;;;;;4.11;100.00;98702.59;4150760;84;28531;-82
2021/10/31 21:12:51;;;;;;;23.45;12.70;;;;;;;4.19;100.00;98705.09;4223150;83;28610;-81
2021/10/31 21:18:54;;;;;;;23.95;13.18;;;;;;;4.16;100.00;98702.31;4271373;82;28494;-80
2021/10/31 21:24:56;;;;;;;28.02;14.95;;;;;;;4.27;100.00;98696.95;4278004;82;28488;-80
2021/10/31 21:30:57;;;;;;;26.57;14.00;;;;;;;4.16;100.00;98685.02;4275971;82;28479;-79
2021/10/31 21:36:59;;;;;;;25.60;13.38;;;;;;;4.04;100.00;98679.95;4282538;82;28491;-83
2021/10/31 21:43:01;;;;;;;24.80;12.07;;;;;;;3.87;100.00;98675.47;4282209;82;28940;-80
2021/10/31 21:49:05;;;;;;;23.40;11.57;;;;;;;4.00;100.00;98669.38;4285478;82;28540;-80
2021/10/31 21:55:07;;;;;;;24.23;12.20;;;;;;;3.84;100.00;98658.56;4257774;82;28486;-81
2021/10/31 22:01:09;;;;;;;29.77;14.90;;;;;;;3.89;100.00;98660.94;4280720;82;28520;-80
2021/10/31 22:07:11;;;;;;;26.00;13.55;;;;;;;3.97;100.00;98661.30;4170063;84;28492;-80
2021/10/31 22:13:14;;;;;;;27.75;14.78;;;;;;;4.02;100.00;98664.17;4301798;81;28538;-81
2021/10/31 22:19:15;;;;;;;29.12;15.80;;;;;;;4.02;100.00;98667.37;4190907;83;28474;-79
2021/10/31 22:25:16;;;;;;;24.47;12.15;;;;;;;3.98;100.00;98651.47;4186889;84;28497;-80
2021/10/31 22:31:19;;;;;;;21.57;12.65;;;;;;;3.48;100.00;98643.95;4243538;82;28511;-79
2021/10/31 22:37:21;;;;;;;25.52;14.25;;;;;;;3.48;100.00;98638.63;4289639;81;28491;-79
2021/10/31 22:43:22;;;;;;;30.62;15.78;;;;;;;3.43;100.00;98634.91;4297514;81;28455;-79
2021/10/31 22:49:24;;;;;;;33.33;15.95;;;;;;;3.40;100.00;98629.47;4309470;81;28526;-78
2021/10/31 22:55:25;;;;;;;28.38;13.98;;;;;;;3.28;100.00;98620.41;4297746;81;28522;-80
2021/10/31 23:01:28;;;;;;;23.60;13.35;;;;;;;3.14;100.00;98621.64;4290885;81;28547;-79
2021/10/31 23:07:29;;;;;;;30.43;15.00;;;;;;;3.03;100.00;98616.86;4309107;81;28496;-78
2021/10/31 23:13:31;;;;;;;30.90;16.17;;;;;;;3.19;100.00;98625.05;4316467;81;28520;-80
2021/10/31 23:19:32;;;;;;;30.60;15.98;;;;;;;3.18;100.00;98620.23;4283573;81;28500;-77
2021/10/31 23:25:33;;;;;;;30.48;14.23;;;;;;;2.93;100.00;98618.50;4306607;81;28472;-79
2021/10/31 23:31:35;;;;;;;25.90;14.15;;;;;;;2.72;100.00;98618.03;4317771;81;28520;-79
2021/10/31 23:37:36;;;;;;;27.85;15.75;;;;;;;2.84;100.00;98624.95;4312182;81;28473;-80
2021/10/31 23:43:38;;;;;;;33.02;16.25;;;;;;;2.69;100.00;98620.55;4306123;81;28512;-81
2021/10/31 23:49:40;;;;;;;31.07;16.75;;;;;;;2.83;100.00;98616.67;4321135;81;28522;-80
2021/10/31 23:55:42;;;;;;;31.75;15.58;;;;;;;2.64;100.00;98604.36;4315447;82;28526;-80
